sensor_id;sensor_type;location;lat;lon;timestamp;P1;durP1;ratioP1;P2;durP2;ratioP2
11675;SDS011;5894;42.768;23.404;2022-09-20T00:00:16;0.43;;;0.40;;
11675;SDS011;5894;42.768;23.404;2022-09-20T00:02:43;0.55;;;0.52;;
11675;SDS011;5894;42.768;23.404;2022-09-20T00:05:09;0.50;;;0.50;;
11675;SDS011;5894;42.768;23.404;2022-09-20T00:07:37;0.90;;;0.60;;
11675;SDS011;5894;42.768;23.404;2022-09-20T00:10:04;0.40;;;0.35;;
11675;SDS011;5894;42.768;23.404;2022-09-20T00:12:32;0.77;;;0.50;;
11675;SDS011;5894;42.768;23.404;2022-09-20T00:14:59;0.30;;;0.30;;
11675;SDS011;5894;42.768;23.404;2022-09-20T00:17:26;0.55;;;0.50;;
11675;SDS011;5894;42.768;23.404;2022-09-20T00:19:53;0.73;;;0.73;;
11675;SDS011;5894;42.768;23.404;2022-09-20T00:22:20;0.80;;;0.40;;
11675;SDS011;5894;42.768;23.404;2022-09-20T00:24:46;0.60;;;0.50;;
11675;SDS011;5894;42.768;23.404;2022-09-20T00:27:13;0.32;;;0.32;;
11675;SDS011;5894;42.768;23.404;2022-09-20T00:29:41;0.50;;;0.50;;
11675;SDS011;5894;42.768;23.404;2022-09-20T00:32:08;0.40;;;0.40;;
11675;SDS011;5894;42.768;23.404;2022-09-20T00:34:35;0.70;;;0.55;;
11675;SDS011;5894;42.768;23.404;2022-09-20T00:37:19;0.40;;;0.40;;
11675;SDS011;5894;42.768;23.404;2022-09-20T00:39:46;0.57;;;0.57;;
11675;SDS011;5894;42.768;23.404;2022-09-20T00:42:12;0.63;;;0.50;;
11675;SDS011;5894;42.768;23.404;2022-09-20T00:44:54;0.70;;;0.70;;
11675;SDS011;5894;42.768;23.404;2022-09-20T00:47:24;1.63;;;0.70;;
11675;SDS011;5894;42.768;23.404;2022-09-20T00:50:02;0.80;;;0.80;;
11675;SDS011;5894;42.768;23.404;2022-09-20T01:09:37;0.80;;;0.80;;
11675;SDS011;5894;42.768;23.404;2022-09-20T01:12:05;0.95;;;0.82;;
11675;SDS011;5894;42.768;23.404;2022-09-20T01:14:44;1.00;;;0.80;;
11675;SDS011;5894;42.768;23.404;2022-09-20T01:17:13;1.10;;;0.90;;
11675;SDS011;5894;42.768;23.404;2022-09-20T01:19:46;0.70;;;0.70;;
11675;SDS011;5894;42.768;23.404;2022-09-20T01:22:20;0.80;;;0.80;;
11675;SDS011;5894;42.768;23.404;2022-09-20T01:24:53;1.07;;;0.83;;
11675;SDS011;5894;42.768;23.404;2022-09-20T01:27:36;1.33;;;0.97;;
11675;SDS011;5894;42.768;23.404;2022-09-20T01:30:06;2.47;;;0.90;;
11675;SDS011;5894;42.768;23.404;2022-09-20T01:32:38;1.00;;;0.77;;
11675;SDS011;5894;42.768;23.404;2022-09-20T01:35:18;1.93;;;0.80;;
11675;SDS011;5894;42.768;23.404;2022-09-20T01:37:50;1.23;;;0.87;;
11675;SDS011;5894;42.768;23.404;2022-09-20T01:40:33;1.63;;;0.90;;
11675;SDS011;5894;42.768;23.404;2022-09-20T01:43:12;0.93;;;0.83;;
11675;SDS011;5894;42.768;23.404;2022-09-20T01:45:45;0.70;;;0.70;;
11675;SDS011;5894;42.768;23.404;2022-09-20T01:48:17;0.60;;;0.60;;
11675;SDS011;5894;42.768;23.404;2022-09-20T01:51:08;1.00;;;0.73;;
11675;SDS011;5894;42.768;23.404;2022-09-20T01:53:49;0.77;;;0.77;;
11675;SDS011;5894;42.768;23.404;2022-09-20T02:02:32;1.50;;;1.20;;
11675;SDS011;5894;42.768;23.404;2022-09-20T02:05:27;1.30;;;1.20;;
11675;SDS011;5894;42.768;23.404;2022-09-20T02:11:12;1.13;;;1.03;;
11675;SDS011;5894;42.768;23.404;2022-09-20T02:22:25;1.90;;;1.20;;
11675;SDS011;5894;42.768;23.404;2022-09-20T02:25:07;1.57;;;1.20;;
11675;SDS011;5894;42.768;23.404;2022-09-20T02:27:46;1.60;;;1.20;;
11675;SDS011;5894;42.768;23.404;2022-09-20T02:30:30;1.17;;;1.07;;
11675;SDS011;5894;42.768;23.404;2022-09-20T02:33:11;1.30;;;1.20;;
11675;SDS011;5894;42.768;23.404;2022-09-20T02:35:51;1.57;;;1.47;;
11675;SDS011;5894;42.768;23.404;2022-09-20T02:38:31;1.37;;;1.27;;
11675;SDS011;5894;42.768;23.404;2022-09-20T02:44:17;1.83;;;1.20;;
11675;SDS011;5894;42.768;23.404;2022-09-20T02:46:53;2.23;;;1.60;;
11675;SDS011;5894;42.768;23.404;2022-09-20T02:49:30;2.03;;;1.50;;
11675;SDS011;5894;42.768;23.404;2022-09-20T02:52:06;4.53;;;1.40;;
11675;SDS011;5894;42.768;23.404;2022-09-20T02:54:44;1.70;;;1.40;;
11675;SDS011;5894;42.768;23.404;2022-09-20T02:57:21;2.27;;;1.27;;
11675;SDS011;5894;42.768;23.404;2022-09-20T02:59:56;1.57;;;1.40;;
11675;SDS011;5894;42.768;23.404;2022-09-20T03:02:29;1.70;;;1.60;;
11675;SDS011;5894;42.768;23.404;2022-09-20T03:05:12;1.70;;;1.60;;
11675;SDS011;5894;42.768;23.404;2022-09-20T03:07:48;2.03;;;1.77;;
11675;SDS011;5894;42.768;23.404;2022-09-20T03:10:27;1.70;;;1.60;;
11675;SDS011;5894;42.768;23.404;2022-09-20T03:13:06;2.37;;;1.70;;
11675;SDS011;5894;42.768;23.404;2022-09-20T03:15:47;2.90;;;1.63;;
11675;SDS011;5894;42.768;23.404;2022-09-20T03:18:28;4.43;;;1.80;;
11675;SDS011;5894;42.768;23.404;2022-09-20T03:21:04;3.60;;;1.90;;
11675;SDS011;5894;42.768;23.404;2022-09-20T03:23:47;2.23;;;1.80;;
11675;SDS011;5894;42.768;23.404;2022-09-20T03:26:23;2.53;;;1.83;;
11675;SDS011;5894;42.768;23.404;2022-09-20T03:29:02;3.17;;;2.17;;
11675;SDS011;5894;42.768;23.404;2022-09-20T03:31:37;4.67;;;2.07;;
11675;SDS011;5894;42.768;23.404;2022-09-20T03:34:22;8.20;;;2.33;;
11675;SDS011;5894;42.768;23.404;2022-09-20T03:37:08;4.47;;;2.53;;
11675;SDS011;5894;42.768;23.404;2022-09-20T03:42:50;3.60;;;3.30;;
11675;SDS011;5894;42.768;23.404;2022-09-20T03:48:20;2.20;;;2.00;;
11675;SDS011;5894;42.768;23.404;2022-09-20T03:51:01;2.30;;;2.10;;
11675;SDS011;5894;42.768;23.404;2022-09-20T03:53:43;2.47;;;2.20;;
11675;SDS011;5894;42.768;23.404;2022-09-20T03:59:26;3.93;;;2.27;;
11675;SDS011;5894;42.768;23.404;2022-09-20T04:04:59;3.40;;;2.47;;
11675;SDS011;5894;42.768;23.404;2022-09-20T04:07:30;2.80;;;2.50;;
11675;SDS011;5894;42.768;23.404;2022-09-20T04:10:12;3.13;;;2.60;;
11675;SDS011;5894;42.768;23.404;2022-09-20T04:12:52;6.83;;;3.13;;
11675;SDS011;5894;42.768;23.404;2022-09-20T04:15:30;5.03;;;3.80;;
11675;SDS011;5894;42.768;23.404;2022-09-20T04:18:04;6.27;;;3.60;;
11675;SDS011;5894;42.768;23.404;2022-09-20T04:20:42;5.60;;;3.80;;
11675;SDS011;5894;42.768;23.404;2022-09-20T04:23:17;5.10;;;3.57;;
11675;SDS011;5894;42.768;23.404;2022-09-20T04:25:57;5.73;;;3.43;;
11675;SDS011;5894;42.768;23.404;2022-09-20T04:28:27;5.30;;;3.47;;
11675;SDS011;5894;42.768;23.404;2022-09-20T04:31:02;7.47;;;3.90;;
11675;SDS011;5894;42.768;23.404;2022-09-20T04:33:38;6.80;;;3.73;;
11675;SDS011;5894;42.768;23.404;2022-09-20T04:36:12;5.40;;;3.50;;
11675;SDS011;5894;42.768;23.404;2022-09-20T04:39:03;4.57;;;3.27;;
11675;SDS011;5894;42.768;23.404;2022-09-20T04:57:26;20.57;;;14.30;;
11675;SDS011;5894;42.768;23.404;2022-09-20T05:00:18;13.13;;;7.87;;
11675;SDS011;5894;42.768;23.404;2022-09-20T05:03:02;5.40;;;4.73;;
11675;SDS011;5894;42.768;23.404;2022-09-20T05:05:59;4.27;;;3.87;;
11675;SDS011;5894;42.768;23.404;2022-09-20T05:12:10;3.73;;;3.37;;
11675;SDS011;5894;42.768;23.404;2022-09-20T05:15:10;4.93;;;3.17;;
11675;SDS011;5894;42.768;23.404;2022-09-20T05:18:00;3.73;;;3.33;;
11675;SDS011;5894;42.768;23.404;2022-09-20T05:20:42;3.60;;;3.20;;
11675;SDS011;5894;42.768;23.404;2022-09-20T05:23:36;3.43;;;2.93;;
11675;SDS011;5894;42.768;23.404;2022-09-20T05:26:12;5.83;;;3.10;;
11675;SDS011;5894;42.768;23.404;2022-09-20T05:28:52;4.90;;;3.40;;
11675;SDS011;5894;42.768;23.404;2022-09-20T05:31:27;3.77;;;3.23;;
11675;SDS011;5894;42.768;23.404;2022-09-20T05:34:03;6.40;;;3.17;;
11675;SDS011;5894;42.768;23.404;2022-09-20T05:36:43;5.30;;;3.60;;
11675;SDS011;5894;42.768;23.404;2022-09-20T05:39:25;4.07;;;3.27;;
11675;SDS011;5894;42.768;23.404;2022-09-20T05:42:00;5.37;;;3.83;;
11675;SDS011;5894;42.768;23.404;2022-09-20T05:44:44;3.77;;;3.33;;
11675;SDS011;5894;42.768;23.404;2022-09-20T05:47:22;6.70;;;3.00;;
11675;SDS011;5894;42.768;23.404;2022-09-20T05:49:58;7.20;;;3.67;;
11675;SDS011;5894;42.768;23.404;2022-09-20T05:52:43;3.70;;;3.30;;
11675;SDS011;5894;42.768;23.404;2022-09-20T05:55:20;5.07;;;3.90;;
11675;SDS011;5894;42.768;23.404;2022-09-20T05:57:59;8.40;;;3.90;;
11675;SDS011;5894;42.768;23.404;2022-09-20T06:00:34;4.47;;;3.77;;
11675;SDS011;5894;42.768;23.404;2022-09-20T06:03:09;4.93;;;3.93;;
11675;SDS011;5894;42.768;23.404;2022-09-20T06:05:45;5.77;;;3.70;;
11675;SDS011;5894;42.768;23.404;2022-09-20T06:08:27;6.80;;;3.50;;
11675;SDS011;5894;42.768;23.404;2022-09-20T06:11:15;4.53;;;3.33;;
11675;SDS011;5894;42.768;23.404;2022-09-20T06:13:59;3.93;;;3.40;;
11675;SDS011;5894;42.768;23.404;2022-09-20T06:16:37;6.27;;;3.30;;
11675;SDS011;5894;42.768;23.404;2022-09-20T06:19:12;3.87;;;3.10;;
11675;SDS011;5894;42.768;23.404;2022-09-20T06:21:49;4.03;;;3.20;;
11675;SDS011;5894;42.768;23.404;2022-09-20T06:24:21;4.83;;;3.40;;
11675;SDS011;5894;42.768;23.404;2022-09-20T06:26:56;4.07;;;3.43;;
11675;SDS011;5894;42.768;23.404;2022-09-20T06:29:28;3.33;;;3.00;;
11675;SDS011;5894;42.768;23.404;2022-09-20T06:31:57;3.43;;;3.13;;
11675;SDS011;5894;42.768;23.404;2022-09-20T06:34:24;5.70;;;2.73;;
11675;SDS011;5894;42.768;23.404;2022-09-20T06:36:54;2.77;;;2.57;;
11675;SDS011;5894;42.768;23.404;2022-09-20T06:39:48;4.07;;;2.93;;
11675;SDS011;5894;42.768;23.404;2022-09-20T06:45:40;3.10;;;2.47;;
11675;SDS011;5894;42.768;23.404;2022-09-20T06:48:07;3.00;;;2.50;;
11675;SDS011;5894;42.768;23.404;2022-09-20T06:50:37;2.93;;;2.63;;
11675;SDS011;5894;42.768;23.404;2022-09-20T06:53:04;6.50;;;2.77;;
11675;SDS011;5894;42.768;23.404;2022-09-20T06:55:31;3.90;;;2.60;;
11675;SDS011;5894;42.768;23.404;2022-09-20T06:58:05;4.87;;;2.67;;
11675;SDS011;5894;42.768;23.404;2022-09-20T07:00:34;2.80;;;2.60;;
11675;SDS011;5894;42.768;23.404;2022-09-20T07:03:03;3.40;;;2.63;;
11675;SDS011;5894;42.768;23.404;2022-09-20T07:05:31;2.80;;;2.30;;
11675;SDS011;5894;42.768;23.404;2022-09-20T07:07:58;4.83;;;2.67;;
11675;SDS011;5894;42.768;23.404;2022-09-20T07:10:26;3.37;;;2.50;;
11675;SDS011;5894;42.768;23.404;2022-09-20T07:12:54;2.50;;;2.30;;
11675;SDS011;5894;42.768;23.404;2022-09-20T07:15:24;2.50;;;2.30;;
11675;SDS011;5894;42.768;23.404;2022-09-20T07:17:53;2.73;;;2.10;;
11675;SDS011;5894;42.768;23.404;2022-09-20T07:20:21;2.60;;;2.20;;
11675;SDS011;5894;42.768;23.404;2022-09-20T07:22:48;2.50;;;2.30;;
11675;SDS011;5894;42.768;23.404;2022-09-20T07:25:15;2.53;;;2.10;;
11675;SDS011;5894;42.768;23.404;2022-09-20T07:27:43;2.53;;;1.93;;
11675;SDS011;5894;42.768;23.404;2022-09-20T07:30:11;2.13;;;1.93;;
11675;SDS011;5894;42.768;23.404;2022-09-20T07:32:38;3.67;;;2.30;;
11675;SDS011;5894;42.768;23.404;2022-09-20T07:35:07;3.17;;;1.80;;
11675;SDS011;5894;42.768;23.404;2022-09-20T07:37:35;5.30;;;1.85;;
11675;SDS011;5894;42.768;23.404;2022-09-20T07:40:06;1.63;;;1.50;;
11675;SDS011;5894;42.768;23.404;2022-09-20T07:42:34;4.05;;;1.55;;
11675;SDS011;5894;42.768;23.404;2022-09-20T07:45:01;1.67;;;1.50;;
11675;SDS011;5894;42.768;23.404;2022-09-20T07:47:28;1.60;;;1.50;;
11675;SDS011;5894;42.768;23.404;2022-09-20T07:49:57;1.70;;;1.60;;
11675;SDS011;5894;42.768;23.404;2022-09-20T07:52:25;1.50;;;1.40;;
11675;SDS011;5894;42.768;23.404;2022-09-20T07:54:52;2.03;;;1.50;;
11675;SDS011;5894;42.768;23.404;2022-09-20T07:57:19;1.40;;;1.30;;
11675;SDS011;5894;42.768;23.404;2022-09-20T08:03:40;1.77;;;1.40;;
11675;SDS011;5894;42.768;23.404;2022-09-20T08:06:08;1.85;;;1.40;;
11675;SDS011;5894;42.768;23.404;2022-09-20T08:08:40;1.65;;;1.50;;
11675;SDS011;5894;42.768;23.404;2022-09-20T08:11:07;1.35;;;1.25;;
11675;SDS011;5894;42.768;23.404;2022-09-20T08:13:35;2.40;;;1.20;;
11675;SDS011;5894;42.768;23.404;2022-09-20T08:16:03;1.58;;;1.20;;
11675;SDS011;5894;42.768;23.404;2022-09-20T08:18:32;2.35;;;1.10;;
11675;SDS011;5894;42.768;23.404;2022-09-20T08:21:01;0.98;;;0.98;;
11675;SDS011;5894;42.768;23.404;2022-09-20T08:23:32;1.77;;;1.10;;
11675;SDS011;5894;42.768;23.404;2022-09-20T08:26:01;1.40;;;1.30;;
11675;SDS011;5894;42.768;23.404;2022-09-20T08:28:29;1.42;;;1.33;;
11675;SDS011;5894;42.768;23.404;2022-09-20T08:30:59;3.58;;;1.30;;
11675;SDS011;5894;42.768;23.404;2022-09-20T08:33:27;1.95;;;1.10;;
11675;SDS011;5894;42.768;23.404;2022-09-20T08:35:54;1.33;;;1.20;;
11675;SDS011;5894;42.768;23.404;2022-09-20T08:38:21;1.20;;;1.10;;
11675;SDS011;5894;42.768;23.404;2022-09-20T08:40:51;2.08;;;1.20;;
11675;SDS011;5894;42.768;23.404;2022-09-20T08:43:21;0.98;;;0.90;;
11675;SDS011;5894;42.768;23.404;2022-09-20T08:45:53;1.00;;;1.00;;
11675;SDS011;5894;42.768;23.404;2022-09-20T08:48:21;1.98;;;1.10;;
11675;SDS011;5894;42.768;23.404;2022-09-20T08:50:53;0.90;;;0.90;;
11675;SDS011;5894;42.768;23.404;2022-09-20T08:53:20;2.17;;;1.15;;
11675;SDS011;5894;42.768;23.404;2022-09-20T08:55:47;2.38;;;0.95;;
11675;SDS011;5894;42.768;23.404;2022-09-20T08:58:14;3.35;;;1.67;;
11675;SDS011;5894;42.768;23.404;2022-09-20T09:00:43;4.10;;;1.88;;
11675;SDS011;5894;42.768;23.404;2022-09-20T09:03:12;2.25;;;1.08;;
11675;SDS011;5894;42.768;23.404;2022-09-20T09:05:42;1.10;;;1.00;;
11675;SDS011;5894;42.768;23.404;2022-09-20T09:08:11;0.88;;;0.88;;
11675;SDS011;5894;42.768;23.404;2022-09-20T09:10:41;1.35;;;0.90;;
11675;SDS011;5894;42.768;23.404;2022-09-20T09:13:14;3.63;;;1.00;;
11675;SDS011;5894;42.768;23.404;2022-09-20T09:15:50;1.73;;;0.90;;
11675;SDS011;5894;42.768;23.404;2022-09-20T09:18:21;0.90;;;0.90;;
11675;SDS011;5894;42.768;23.404;2022-09-20T09:20:56;1.40;;;1.30;;
11675;SDS011;5894;42.768;23.404;2022-09-20T09:23:26;2.75;;;1.60;;
11675;SDS011;5894;42.768;23.404;2022-09-20T09:25:54;1.58;;;1.20;;
11675;SDS011;5894;42.768;23.404;2022-09-20T09:28:22;16.95;;;1.67;;
11675;SDS011;5894;42.768;23.404;2022-09-20T09:30:52;1.63;;;1.00;;
11675;SDS011;5894;42.768;23.404;2022-09-20T09:33:41;4.22;;;0.98;;
11675;SDS011;5894;42.768;23.404;2022-09-20T09:36:12;1.15;;;1.00;;
11675;SDS011;5894;42.768;23.404;2022-09-20T09:38:41;8.52;;;1.20;;
11675;SDS011;5894;42.768;23.404;2022-09-20T09:41:19;1.10;;;1.00;;
11675;SDS011;5894;42.768;23.404;2022-09-20T09:43:59;0.90;;;0.90;;
11675;SDS011;5894;42.768;23.404;2022-09-20T09:46:31;0.80;;;0.80;;
11675;SDS011;5894;42.768;23.404;2022-09-20T09:49:03;1.40;;;0.93;;
11675;SDS011;5894;42.768;23.404;2022-09-20T09:51:35;2.58;;;1.02;;
11675;SDS011;5894;42.768;23.404;2022-09-20T09:54:03;1.05;;;0.95;;
11675;SDS011;5894;42.768;23.404;2022-09-20T09:56:41;3.78;;;1.10;;
11675;SDS011;5894;42.768;23.404;2022-09-20T09:59:23;2.17;;;0.80;;
11675;SDS011;5894;42.768;23.404;2022-09-20T10:02:17;1.73;;;0.85;;
11675;SDS011;5894;42.768;23.404;2022-09-20T10:04:56;0.77;;;0.77;;
11675;SDS011;5894;42.768;23.404;2022-09-20T10:07:30;2.10;;;0.90;;
11675;SDS011;5894;42.768;23.404;2022-09-20T10:10:07;5.95;;;1.10;;
11675;SDS011;5894;42.768;23.404;2022-09-20T10:12:51;2.55;;;1.10;;
11675;SDS011;5894;42.768;23.404;2022-09-20T10:15:29;1.38;;;1.10;;
11675;SDS011;5894;42.768;23.404;2022-09-20T10:18:10;1.00;;;0.90;;
11675;SDS011;5894;42.768;23.404;2022-09-20T10:20:56;1.80;;;1.60;;
11675;SDS011;5894;42.768;23.404;2022-09-20T10:23:41;1.15;;;1.00;;
11675;SDS011;5894;42.768;23.404;2022-09-20T10:29:21;0.90;;;0.90;;
11675;SDS011;5894;42.768;23.404;2022-09-20T10:32:00;0.93;;;0.93;;
11675;SDS011;5894;42.768;23.404;2022-09-20T10:37:27;0.80;;;0.80;;
11675;SDS011;5894;42.768;23.404;2022-09-20T10:40:03;1.00;;;0.98;;
11675;SDS011;5894;42.768;23.404;2022-09-20T10:42:37;2.70;;;1.95;;
11675;SDS011;5894;42.768;23.404;2022-09-20T10:45:31;2.08;;;0.80;;
11675;SDS011;5894;42.768;23.404;2022-09-20T10:48:03;0.70;;;0.70;;
11675;SDS011;5894;42.768;23.404;2022-09-20T10:50:36;2.33;;;1.13;;
11675;SDS011;5894;42.768;23.404;2022-09-20T10:53:12;0.80;;;0.70;;
11675;SDS011;5894;42.768;23.404;2022-09-20T10:55:50;2.17;;;1.10;;
11675;SDS011;5894;42.768;23.404;2022-09-20T10:58:38;1.60;;;0.90;;
11675;SDS011;5894;42.768;23.404;2022-09-20T11:01:17;2.20;;;1.25;;
11675;SDS011;5894;42.768;23.404;2022-09-20T11:04:11;4.38;;;1.35;;
11675;SDS011;5894;42.768;23.404;2022-09-20T11:07:10;0.82;;;0.82;;
11675;SDS011;5894;42.768;23.404;2022-09-20T11:09:45;0.77;;;0.77;;
11675;SDS011;5894;42.768;23.404;2022-09-20T11:12:25;0.88;;;0.88;;
11675;SDS011;5894;42.768;23.404;2022-09-20T11:14:57;0.93;;;0.90;;
11675;SDS011;5894;42.768;23.404;2022-09-20T11:17:31;1.20;;;0.90;;
11675;SDS011;5894;42.768;23.404;2022-09-20T11:20:02;1.08;;;1.00;;
11675;SDS011;5894;42.768;23.404;2022-09-20T11:22:39;1.10;;;1.00;;
11675;SDS011;5894;42.768;23.404;2022-09-20T11:25:11;1.00;;;1.00;;
11675;SDS011;5894;42.768;23.404;2022-09-20T11:27:42;1.08;;;1.05;;
11675;SDS011;5894;42.768;23.404;2022-09-20T11:30:14;1.02;;;0.93;;
11675;SDS011;5894;42.768;23.404;2022-09-20T11:32:45;1.52;;;1.10;;
11675;SDS011;5894;42.768;23.404;2022-09-20T11:35:23;1.10;;;1.00;;
11675;SDS011;5894;42.768;23.404;2022-09-20T11:37:59;1.00;;;1.00;;
11675;SDS011;5894;42.768;23.404;2022-09-20T11:40:36;1.15;;;1.05;;
11675;SDS011;5894;42.768;23.404;2022-09-20T11:43:08;0.98;;;0.95;;
11675;SDS011;5894;42.768;23.404;2022-09-20T11:45:36;1.00;;;1.00;;
11675;SDS011;5894;42.768;23.404;2022-09-20T11:48:08;0.90;;;0.88;;
11675;SDS011;5894;42.768;23.404;2022-09-20T11:53:45;1.00;;;0.93;;
11675;SDS011;5894;42.768;23.404;2022-09-20T11:56:25;0.85;;;0.85;;
11675;SDS011;5894;42.768;23.404;2022-09-20T11:58:56;0.90;;;0.90;;
11675;SDS011;5894;42.768;23.404;2022-09-20T12:01:25;2.88;;;0.90;;
11675;SDS011;5894;42.768;23.404;2022-09-20T12:03:56;0.90;;;0.90;;
11675;SDS011;5894;42.768;23.404;2022-09-20T12:06:27;0.95;;;0.95;;
11675;SDS011;5894;42.768;23.404;2022-09-20T12:08:59;3.28;;;0.93;;
11675;SDS011;5894;42.768;23.404;2022-09-20T12:11:28;3.10;;;1.30;;
11675;SDS011;5894;42.768;23.404;2022-09-20T12:14:00;2.97;;;1.27;;
11675;SDS011;5894;42.768;23.404;2022-09-20T12:16:37;2.05;;;1.05;;
11675;SDS011;5894;42.768;23.404;2022-09-20T12:19:07;2.60;;;1.33;;
11675;SDS011;5894;42.768;23.404;2022-09-20T12:27:57;2.10;;;0.95;;
11675;SDS011;5894;42.768;23.404;2022-09-20T12:30:24;1.02;;;0.98;;
11675;SDS011;5894;42.768;23.404;2022-09-20T12:32:55;1.30;;;1.00;;
11675;SDS011;5894;42.768;23.404;2022-09-20T12:38:44;1.20;;;1.10;;
11675;SDS011;5894;42.768;23.404;2022-09-20T12:41:14;0.80;;;0.70;;
11675;SDS011;5894;42.768;23.404;2022-09-20T12:46:49;1.00;;;1.00;;
11675;SDS011;5894;42.768;23.404;2022-09-20T12:52:23;0.80;;;0.80;;
11675;SDS011;5894;42.768;23.404;2022-09-20T12:55:10;1.75;;;0.90;;
11675;SDS011;5894;42.768;23.404;2022-09-20T12:57:51;1.45;;;0.90;;
11675;SDS011;5894;42.768;23.404;2022-09-20T13:00:28;0.80;;;0.80;;
11675;SDS011;5894;42.768;23.404;2022-09-20T13:03:00;0.75;;;0.75;;
11675;SDS011;5894;42.768;23.404;2022-09-20T13:05:38;2.15;;;1.10;;
11675;SDS011;5894;42.768;23.404;2022-09-20T13:08:11;1.48;;;0.90;;
11675;SDS011;5894;42.768;23.404;2022-09-20T13:10:42;0.75;;;0.75;;
11675;SDS011;5894;42.768;23.404;2022-09-20T13:13:25;0.80;;;0.80;;
11675;SDS011;5894;42.768;23.404;2022-09-20T13:15:57;1.55;;;0.80;;
11675;SDS011;5894;42.768;23.404;2022-09-20T13:18:29;0.90;;;0.73;;
11675;SDS011;5894;42.768;23.404;2022-09-20T13:20:56;1.85;;;0.93;;
11675;SDS011;5894;42.768;23.404;2022-09-20T13:23:31;1.10;;;0.80;;
11675;SDS011;5894;42.768;23.404;2022-09-20T13:26:05;0.88;;;0.88;;
11675;SDS011;5894;42.768;23.404;2022-09-20T13:28:38;0.80;;;0.80;;
11675;SDS011;5894;42.768;23.404;2022-09-20T13:34:13;2.00;;;0.90;;
11675;SDS011;5894;42.768;23.404;2022-09-20T13:36:43;0.90;;;0.90;;
11675;SDS011;5894;42.768;23.404;2022-09-20T13:39:19;1.75;;;0.80;;
11675;SDS011;5894;42.768;23.404;2022-09-20T13:41:49;1.27;;;0.82;;
11675;SDS011;5894;42.768;23.404;2022-09-20T13:44:17;1.65;;;1.05;;
11675;SDS011;5894;42.768;23.404;2022-09-20T13:46:46;0.90;;;0.85;;
11675;SDS011;5894;42.768;23.404;2022-09-20T13:49:13;2.58;;;0.77;;
11675;SDS011;5894;42.768;23.404;2022-09-20T13:51:45;0.68;;;0.63;;
11675;SDS011;5894;42.768;23.404;2022-09-20T13:54:16;0.90;;;0.73;;
11675;SDS011;5894;42.768;23.404;2022-09-20T13:56:45;2.35;;;0.98;;
11675;SDS011;5894;42.768;23.404;2022-09-20T13:59:13;0.70;;;0.70;;
11675;SDS011;5894;42.768;23.404;2022-09-20T14:01:42;1.40;;;0.98;;
11675;SDS011;5894;42.768;23.404;2022-09-20T14:04:15;0.85;;;0.80;;
11675;SDS011;5894;42.768;23.404;2022-09-20T14:06:45;1.25;;;0.65;;
11675;SDS011;5894;42.768;23.404;2022-09-20T14:09:17;0.75;;;0.75;;
11675;SDS011;5894;42.768;23.404;2022-09-20T14:11:50;0.70;;;0.70;;
11675;SDS011;5894;42.768;23.404;2022-09-20T14:14:18;0.70;;;0.70;;
11675;SDS011;5894;42.768;23.404;2022-09-20T14:16:46;1.88;;;0.70;;
11675;SDS011;5894;42.768;23.404;2022-09-20T14:19:17;3.15;;;0.80;;
11675;SDS011;5894;42.768;23.404;2022-09-20T14:21:45;1.52;;;0.90;;
11675;SDS011;5894;42.768;23.404;2022-09-20T14:24:26;1.38;;;0.90;;
11675;SDS011;5894;42.768;23.404;2022-09-20T14:27:01;0.80;;;0.80;;
11675;SDS011;5894;42.768;23.404;2022-09-20T14:29:36;1.13;;;0.80;;
11675;SDS011;5894;42.768;23.404;2022-09-20T14:32:06;0.70;;;0.70;;
11675;SDS011;5894;42.768;23.404;2022-09-20T14:34:46;1.80;;;0.80;;
11675;SDS011;5894;42.768;23.404;2022-09-20T14:37:23;0.57;;;0.57;;
11675;SDS011;5894;42.768;23.404;2022-09-20T14:39:54;1.75;;;0.75;;
11675;SDS011;5894;42.768;23.404;2022-09-20T14:42:23;0.65;;;0.65;;
11675;SDS011;5894;42.768;23.404;2022-09-20T14:44:54;1.35;;;0.90;;
11675;SDS011;5894;42.768;23.404;2022-09-20T14:47:25;0.60;;;0.60;;
11675;SDS011;5894;42.768;23.404;2022-09-20T14:49:54;0.70;;;0.50;;
11675;SDS011;5894;42.768;23.404;2022-09-20T14:52:34;0.60;;;0.60;;
11675;SDS011;5894;42.768;23.404;2022-09-20T14:55:18;1.13;;;0.73;;
11675;SDS011;5894;42.768;23.404;2022-09-20T14:57:52;1.15;;;0.60;;
11675;SDS011;5894;42.768;23.404;2022-09-20T15:00:23;1.15;;;0.55;;
11675;SDS011;5894;42.768;23.404;2022-09-20T15:02:51;0.75;;;0.75;;
11675;SDS011;5894;42.768;23.404;2022-09-20T15:05:22;1.25;;;0.70;;
11675;SDS011;5894;42.768;23.404;2022-09-20T15:07:51;0.70;;;0.70;;
11675;SDS011;5894;42.768;23.404;2022-09-20T15:10:19;0.60;;;0.60;;
11675;SDS011;5894;42.768;23.404;2022-09-20T15:12:46;1.33;;;0.80;;
11675;SDS011;5894;42.768;23.404;2022-09-20T15:15:14;2.22;;;0.80;;
11675;SDS011;5894;42.768;23.404;2022-09-20T15:17:43;0.70;;;0.70;;
11675;SDS011;5894;42.768;23.404;2022-09-20T15:20:15;1.63;;;1.40;;
11675;SDS011;5894;42.768;23.404;2022-09-20T15:22:46;1.55;;;0.98;;
11675;SDS011;5894;42.768;23.404;2022-09-20T15:25:14;0.80;;;0.80;;
11675;SDS011;5894;42.768;23.404;2022-09-20T15:27:43;0.98;;;0.93;;
11675;SDS011;5894;42.768;23.404;2022-09-20T15:30:12;0.90;;;0.80;;
11675;SDS011;5894;42.768;23.404;2022-09-20T15:32:41;1.35;;;0.85;;
11675;SDS011;5894;42.768;23.404;2022-09-20T15:35:08;1.05;;;0.88;;
11675;SDS011;5894;42.768;23.404;2022-09-20T15:37:36;1.65;;;0.70;;
11675;SDS011;5894;42.768;23.404;2022-09-20T15:40:05;0.75;;;0.65;;
11675;SDS011;5894;42.768;23.404;2022-09-20T15:42:33;0.60;;;0.60;;
11675;SDS011;5894;42.768;23.404;2022-09-20T15:45:04;1.65;;;1.10;;
11675;SDS011;5894;42.768;23.404;2022-09-20T15:47:33;2.97;;;1.00;;
11675;SDS011;5894;42.768;23.404;2022-09-20T15:50:01;1.17;;;0.90;;
11675;SDS011;5894;42.768;23.404;2022-09-20T15:52:31;0.80;;;0.80;;
11675;SDS011;5894;42.768;23.404;2022-09-20T15:54:59;0.68;;;0.68;;
11675;SDS011;5894;42.768;23.404;2022-09-20T15:57:29;1.85;;;0.93;;
11675;SDS011;5894;42.768;23.404;2022-09-20T15:59:56;0.80;;;0.80;;
11675;SDS011;5894;42.768;23.404;2022-09-20T16:02:24;1.13;;;1.00;;
11675;SDS011;5894;42.768;23.404;2022-09-20T16:04:51;1.20;;;1.10;;
11675;SDS011;5894;42.768;23.404;2022-09-20T16:07:20;2.15;;;1.35;;
11675;SDS011;5894;42.768;23.404;2022-09-20T16:09:50;2.65;;;1.20;;
11675;SDS011;5894;42.768;23.404;2022-09-20T16:12:17;1.20;;;1.10;;
11675;SDS011;5894;42.768;23.404;2022-09-20T16:14:45;1.30;;;1.20;;
11675;SDS011;5894;42.768;23.404;2022-09-20T16:17:12;2.88;;;1.30;;
11675;SDS011;5894;42.768;23.404;2022-09-20T16:19:39;4.60;;;1.30;;
11675;SDS011;5894;42.768;23.404;2022-09-20T16:22:06;1.85;;;1.30;;
11675;SDS011;5894;42.768;23.404;2022-09-20T16:24:34;2.13;;;1.20;;
11675;SDS011;5894;42.768;23.404;2022-09-20T16:27:02;1.40;;;1.20;;
11675;SDS011;5894;42.768;23.404;2022-09-20T16:29:30;3.13;;;1.40;;
11675;SDS011;5894;42.768;23.404;2022-09-20T16:31:59;1.88;;;1.50;;
11675;SDS011;5894;42.768;23.404;2022-09-20T16:34:28;2.35;;;1.20;;
11675;SDS011;5894;42.768;23.404;2022-09-20T16:36:56;2.30;;;1.67;;
11675;SDS011;5894;42.768;23.404;2022-09-20T16:39:24;1.52;;;1.42;;
11675;SDS011;5894;42.768;23.404;2022-09-20T16:41:52;1.52;;;1.42;;
11675;SDS011;5894;42.768;23.404;2022-09-20T16:44:21;3.58;;;1.50;;
11675;SDS011;5894;42.768;23.404;2022-09-20T16:46:48;1.80;;;1.50;;
11675;SDS011;5894;42.768;23.404;2022-09-20T16:49:16;3.08;;;1.38;;
11675;SDS011;5894;42.768;23.404;2022-09-20T16:51:43;3.50;;;1.70;;
11675;SDS011;5894;42.768;23.404;2022-09-20T16:54:12;3.15;;;1.90;;
11675;SDS011;5894;42.768;23.404;2022-09-20T16:56:40;5.90;;;2.25;;
11675;SDS011;5894;42.768;23.404;2022-09-20T16:59:09;3.70;;;2.38;;
11675;SDS011;5894;42.768;23.404;2022-09-20T17:01:37;3.05;;;2.40;;
11675;SDS011;5894;42.768;23.404;2022-09-20T17:04:05;4.25;;;2.40;;
11675;SDS011;5894;42.768;23.404;2022-09-20T17:06:34;3.45;;;2.30;;
11675;SDS011;5894;42.768;23.404;2022-09-20T17:09:02;2.65;;;2.30;;